VOZ938 YBBN-YSSY
Flight info
| Callsign | VOZ938 |
|---|---|
| Flight time | 1h 8m |
| Altitude | 34000 |
| Route | BN H91 IGDAM H652 TESAT |
| Aircraft | B38M/M-SDE1FGHILORVWXY/HB1 |
Departure
| Time | 2026-04-23 00:49 |
|---|---|
| Airport | Brisbane International Airport (YBBN) |
Arrival
| Time | 2026-04-23 01:57 |
|---|---|
| Airport | Sydney Kingsford Smith International Airport (YSSY) |
| Time | Latitude | Longitude | Altitude | Speed | Heading |
|---|---|---|---|---|---|
| 2026-04-22 23:54 | -27.38429 | 153.12158 | 20 ft | 0 kts | 275° |
| 2026-04-23 00:29 | -27.38430 | 153.12170 | 20 ft | 2 kts | 274° |
| 2026-04-23 00:29 | -27.38431 | 153.12188 | 20 ft | 2 kts | 274° |
| 2026-04-23 00:29 | -27.38432 | 153.12207 | 20 ft | 2 kts | 272° |
| 2026-04-23 00:29 | -27.38433 | 153.12226 | 20 ft | 2 kts | 278° |
| 2026-04-23 00:30 | -27.38443 | 153.12239 | 24 ft | 2 kts | 343° |
| 2026-04-23 00:30 | -27.38459 | 153.12242 | 21 ft | 2 kts | 4° |
| 2026-04-23 00:30 | -27.38475 | 153.12238 | 22 ft | 2 kts | 20° |
| 2026-04-23 00:30 | -27.38483 | 153.12234 | 21 ft | 1 kts | 32° |
| 2026-04-23 00:44 | -27.38480 | 153.12236 | 21 ft | 3 kts | 32° |
| 2026-04-23 00:44 | -27.38435 | 153.12293 | 20 ft | 14 kts | 76° |
| 2026-04-23 00:45 | -27.38445 | 153.12413 | 20 ft | 17 kts | 104° |
| 2026-04-23 00:45 | -27.38436 | 153.12510 | 20 ft | 14 kts | 36° |
| 2026-04-23 00:45 | -27.38343 | 153.12564 | 20 ft | 16 kts | 27° |
| 2026-04-23 00:45 | -27.38233 | 153.12628 | 20 ft | 20 kts | 27° |
| 2026-04-23 00:46 | -27.38079 | 153.12715 | 21 ft | 28 kts | 27° |
| 2026-04-23 00:46 | -27.37899 | 153.12820 | 20 ft | 30 kts | 26° |
| 2026-04-23 00:46 | -27.37794 | 153.12878 | 22 ft | 13 kts | 27° |
| 2026-04-23 00:46 | -27.37705 | 153.12929 | 20 ft | 17 kts | 26° |
| 2026-04-23 00:47 | -27.37559 | 153.13013 | 20 ft | 29 kts | 27° |
| 2026-04-23 00:47 | -27.37376 | 153.13116 | 21 ft | 21 kts | 26° |
| 2026-04-23 00:47 | -27.37270 | 153.13181 | 20 ft | 12 kts | 45° |
| 2026-04-23 00:47 | -27.37286 | 153.13265 | 20 ft | 13 kts | 116° |
| 2026-04-23 00:48 | -27.37329 | 153.13360 | 24 ft | 15 kts | 118° |
| 2026-04-23 00:48 | -27.37409 | 153.13430 | 24 ft | 15 kts | 165° |
| 2026-04-23 00:48 | -27.37547 | 153.13380 | 22 ft | 42 kts | 207° |
| 2026-04-23 00:48 | -27.38001 | 153.13121 | 25 ft | 100 kts | 207° |
| 2026-04-23 00:49 | -27.38768 | 153.12689 | 21 ft | 144 kts | 207° |
| 2026-04-23 00:49 | -27.39719 | 153.12132 | 274 ft | 156 kts | 204° |
| 2026-04-23 00:49 | -27.40696 | 153.11573 | 814 ft | 161 kts | 203° |
| 2026-04-23 00:49 | -27.41710 | 153.10997 | 1370 ft | 163 kts | 204° |
| 2026-04-23 00:50 | -27.42791 | 153.10498 | 1887 ft | 179 kts | 188° |
| 2026-04-23 00:50 | -27.44103 | 153.10624 | 2349 ft | 204 kts | 159° |
| 2026-04-23 00:50 | -27.45239 | 153.11498 | 3403 ft | 195 kts | 141° |
| 2026-04-23 00:50 | -27.46366 | 153.12421 | 4145 ft | 207 kts | 147° |
| 2026-04-23 00:51 | -27.47592 | 153.13360 | 4920 ft | 215 kts | 147° |
| 2026-04-23 00:51 | -27.48849 | 153.14292 | 5793 ft | 222 kts | 153° |
| 2026-04-23 00:51 | -27.50411 | 153.14666 | 6305 ft | 243 kts | 181° |
| 2026-04-23 00:51 | -27.52144 | 153.14310 | 6867 ft | 262 kts | 189° |
| 2026-04-23 00:52 | -27.53936 | 153.13881 | 7732 ft | 264 kts | 189° |
| 2026-04-23 00:52 | -27.55743 | 153.13416 | 8568 ft | 271 kts | 194° |
| 2026-04-23 00:52 | -27.57546 | 153.12722 | 9406 ft | 275 kts | 196° |
| 2026-04-23 00:52 | -27.59373 | 153.12014 | 10228 ft | 281 kts | 196° |
| 2026-04-23 00:53 | -27.61279 | 153.11289 | 10694 ft | 299 kts | 194° |
| 2026-04-23 00:53 | -27.63326 | 153.10600 | 11172 ft | 314 kts | 194° |
| 2026-04-23 00:53 | -27.65459 | 153.09886 | 11824 ft | 323 kts | 194° |
| 2026-04-23 00:53 | -27.67618 | 153.09162 | 12700 ft | 326 kts | 194° |
| 2026-04-23 00:54 | -27.69809 | 153.08426 | 13511 ft | 331 kts | 194° |
| 2026-04-23 00:54 | -27.72029 | 153.07679 | 14346 ft | 335 kts | 194° |
| 2026-04-23 00:54 | -27.74277 | 153.06923 | 15128 ft | 339 kts | 194° |
| 2026-04-23 00:54 | -27.76542 | 153.06160 | 15929 ft | 342 kts | 194° |
| 2026-04-23 00:55 | -27.78839 | 153.05387 | 16694 ft | 346 kts | 194° |
| 2026-04-23 00:55 | -27.81157 | 153.04605 | 17467 ft | 350 kts | 194° |
| 2026-04-23 00:55 | -27.83451 | 153.03622 | 18207 ft | 355 kts | 198° |
| 2026-04-23 00:55 | -27.85762 | 153.02595 | 18887 ft | 359 kts | 198° |
| 2026-04-23 00:56 | -27.88103 | 153.01566 | 19533 ft | 361 kts | 199° |
| 2026-04-23 00:56 | -27.90452 | 153.00541 | 20221 ft | 363 kts | 199° |
| 2026-04-23 00:56 | -27.92815 | 152.99512 | 20891 ft | 365 kts | 200° |
| 2026-04-23 00:56 | -27.95188 | 152.98481 | 21552 ft | 367 kts | 200° |
| 2026-04-23 00:57 | -27.97550 | 152.97454 | 22170 ft | 369 kts | 201° |
| 2026-04-23 00:57 | -27.99962 | 152.96406 | 22772 ft | 373 kts | 201° |
| 2026-04-23 00:57 | -28.02390 | 152.95349 | 23371 ft | 376 kts | 202° |
| 2026-04-23 00:57 | -28.04842 | 152.94282 | 23921 ft | 379 kts | 202° |
| 2026-04-23 00:58 | -28.07318 | 152.93205 | 24401 ft | 382 kts | 202° |
| 2026-04-23 00:58 | -28.09802 | 152.92111 | 24887 ft | 385 kts | 203° |
| 2026-04-23 00:58 | -28.12302 | 152.90999 | 25360 ft | 387 kts | 202° |
| 2026-04-23 00:58 | -28.14821 | 152.89880 | 25838 ft | 390 kts | 203° |
| 2026-04-23 00:59 | -28.17353 | 152.88755 | 26304 ft | 392 kts | 203° |
| 2026-04-23 00:59 | -28.19902 | 152.87621 | 26776 ft | 395 kts | 203° |
| 2026-04-23 00:59 | -28.22468 | 152.86480 | 27229 ft | 397 kts | 203° |
| 2026-04-23 00:59 | -28.25048 | 152.85332 | 27668 ft | 400 kts | 203° |
| 2026-04-23 01:00 | -28.27644 | 152.84175 | 28109 ft | 402 kts | 203° |
| 2026-04-23 01:00 | -28.30255 | 152.83013 | 28533 ft | 405 kts | 203° |
| 2026-04-23 01:00 | -28.32886 | 152.81840 | 28956 ft | 407 kts | 204° |
| 2026-04-23 01:00 | -28.35525 | 152.80662 | 29377 ft | 410 kts | 204° |
| 2026-04-23 01:01 | -28.38191 | 152.79473 | 29770 ft | 412 kts | 204° |
| 2026-04-23 01:01 | -28.40867 | 152.78278 | 30159 ft | 415 kts | 204° |
| 2026-04-23 01:01 | -28.43565 | 152.77074 | 30510 ft | 418 kts | 204° |
| 2026-04-23 01:01 | -28.46283 | 152.75859 | 30823 ft | 421 kts | 204° |
| 2026-04-23 01:02 | -28.49012 | 152.74638 | 31161 ft | 423 kts | 204° |
| 2026-04-23 01:02 | -28.51755 | 152.73411 | 31495 ft | 425 kts | 204° |
| 2026-04-23 01:02 | -28.54507 | 152.72179 | 31835 ft | 426 kts | 204° |
| 2026-04-23 01:02 | -28.57280 | 152.70937 | 32157 ft | 429 kts | 204° |
| 2026-04-23 01:03 | -28.60057 | 152.69692 | 32488 ft | 431 kts | 204° |
| 2026-04-23 01:03 | -28.62855 | 152.68438 | 32793 ft | 433 kts | 204° |
| 2026-04-23 01:03 | -28.65660 | 152.67179 | 33160 ft | 434 kts | 204° |
| 2026-04-23 01:03 | -28.68463 | 152.65920 | 33605 ft | 432 kts | 204° |
| 2026-04-23 01:04 | -28.71227 | 152.64679 | 34047 ft | 431 kts | 204° |
| 2026-04-23 01:04 | -28.74022 | 152.63422 | 34316 ft | 433 kts | 204° |
| 2026-04-23 01:04 | -28.79721 | 152.60859 | 34304 ft | 439 kts | 203° |
| 2026-04-23 01:05 | -28.85329 | 152.58223 | 34302 ft | 437 kts | 210° |
| 2026-04-23 01:05 | -28.90673 | 152.54926 | 34313 ft | 437 kts | 209° |
| 2026-04-23 01:06 | -28.96073 | 152.51708 | 34311 ft | 438 kts | 209° |
| 2026-04-23 01:06 | -29.01475 | 152.48504 | 34317 ft | 437 kts | 209° |
| 2026-04-23 01:07 | -29.06873 | 152.45299 | 34319 ft | 437 kts | 208° |
| 2026-04-23 01:07 | -29.12275 | 152.42088 | 34312 ft | 437 kts | 208° |
| 2026-04-23 01:08 | -29.17676 | 152.38875 | 34317 ft | 437 kts | 208° |
| 2026-04-23 01:08 | -29.23071 | 152.35661 | 34316 ft | 437 kts | 208° |
| 2026-04-23 01:09 | -29.28459 | 152.32447 | 34319 ft | 437 kts | 208° |
| 2026-04-23 01:09 | -29.33854 | 152.29226 | 34320 ft | 437 kts | 208° |
| 2026-04-23 01:10 | -29.39255 | 152.25996 | 34315 ft | 437 kts | 208° |
| 2026-04-23 01:10 | -29.44645 | 152.22769 | 34319 ft | 437 kts | 208° |
| 2026-04-23 01:11 | -29.50036 | 152.19539 | 34314 ft | 437 kts | 208° |
| 2026-04-23 01:11 | -29.55426 | 152.16304 | 34315 ft | 437 kts | 208° |
| 2026-04-23 01:12 | -29.60817 | 152.13066 | 34320 ft | 437 kts | 208° |
| 2026-04-23 01:12 | -29.66210 | 152.09822 | 34320 ft | 437 kts | 208° |
| 2026-04-23 01:13 | -29.71780 | 152.07094 | 34326 ft | 438 kts | 193° |
| 2026-04-23 01:13 | -29.77725 | 152.05509 | 34322 ft | 439 kts | 194° |
| 2026-04-23 01:14 | -29.83678 | 152.03939 | 34323 ft | 439 kts | 194° |
| 2026-04-23 01:14 | -29.89631 | 152.02382 | 34323 ft | 439 kts | 194° |
| 2026-04-23 01:15 | -29.95579 | 152.00826 | 34327 ft | 438 kts | 194° |
| 2026-04-23 01:15 | -30.01528 | 151.99269 | 34330 ft | 438 kts | 194° |
| 2026-04-23 01:16 | -30.07435 | 151.97720 | 34333 ft | 438 kts | 194° |
| 2026-04-23 01:16 | -30.13381 | 151.96159 | 34340 ft | 438 kts | 194° |
| 2026-04-23 01:17 | -30.19326 | 151.94597 | 34328 ft | 438 kts | 194° |
| 2026-04-23 01:17 | -30.25265 | 151.93034 | 34336 ft | 438 kts | 194° |
| 2026-04-23 01:18 | -30.31201 | 151.91469 | 34348 ft | 438 kts | 195° |
| 2026-04-23 01:18 | -30.36889 | 151.89034 | 34333 ft | 437 kts | 202° |
| 2026-04-23 01:19 | -30.42536 | 151.86419 | 34339 ft | 437 kts | 202° |
| 2026-04-23 01:19 | -30.48177 | 151.83795 | 34341 ft | 437 kts | 202° |
| 2026-04-23 01:20 | -30.53812 | 151.81170 | 34344 ft | 437 kts | 202° |
| 2026-04-23 01:20 | -30.59451 | 151.78539 | 34343 ft | 436 kts | 202° |
| 2026-04-23 01:21 | -30.65076 | 151.75911 | 34344 ft | 436 kts | 202° |
| 2026-04-23 01:21 | -30.70704 | 151.73279 | 34345 ft | 436 kts | 202° |
| 2026-04-23 01:22 | -30.76301 | 151.70658 | 34343 ft | 436 kts | 202° |
| 2026-04-23 01:22 | -30.81923 | 151.68022 | 34337 ft | 436 kts | 202° |
| 2026-04-23 01:23 | -30.87542 | 151.65384 | 34355 ft | 435 kts | 202° |
| 2026-04-23 01:23 | -30.93155 | 151.62745 | 34349 ft | 435 kts | 202° |
| 2026-04-23 01:24 | -30.98765 | 151.60105 | 34354 ft | 434 kts | 202° |
| 2026-04-23 01:24 | -31.04366 | 151.57465 | 34353 ft | 434 kts | 202° |
| 2026-04-23 01:25 | -31.09959 | 151.54826 | 34357 ft | 434 kts | 202° |
| 2026-04-23 01:25 | -31.14613 | 151.52627 | 34362 ft | 434 kts | 202° |
| 2026-04-23 01:26 | -31.20211 | 151.49979 | 34353 ft | 434 kts | 202° |
| 2026-04-23 01:26 | -31.25804 | 151.47330 | 34356 ft | 434 kts | 202° |
| 2026-04-23 01:27 | -31.31400 | 151.44677 | 34360 ft | 434 kts | 202° |
| 2026-04-23 01:27 | -31.36991 | 151.42023 | 34360 ft | 434 kts | 202° |
| 2026-04-23 01:28 | -31.42589 | 151.39512 | 34367 ft | 434 kts | 201° |
| 2026-04-23 01:28 | -31.48224 | 151.36997 | 34369 ft | 434 kts | 201° |
| 2026-04-23 01:29 | -31.53864 | 151.34472 | 34367 ft | 434 kts | 201° |
| 2026-04-23 01:29 | -31.59502 | 151.31944 | 34359 ft | 434 kts | 201° |
| 2026-04-23 01:30 | -31.65144 | 151.29412 | 34371 ft | 434 kts | 201° |
| 2026-04-23 01:30 | -31.70782 | 151.26878 | 34364 ft | 434 kts | 201° |
| 2026-04-23 01:31 | -31.76414 | 151.24343 | 34362 ft | 434 kts | 201° |
| 2026-04-23 01:31 | -31.82057 | 151.21800 | 34374 ft | 434 kts | 201° |
| 2026-04-23 01:32 | -31.87694 | 151.19257 | 34371 ft | 434 kts | 201° |
| 2026-04-23 01:32 | -31.93338 | 151.16708 | 34376 ft | 434 kts | 201° |
| 2026-04-23 01:33 | -31.98985 | 151.14181 | 34371 ft | 434 kts | 201° |
| 2026-04-23 01:33 | -32.04617 | 151.11655 | 34338 ft | 429 kts | 201° |
| 2026-04-23 01:34 | -32.07391 | 151.10410 | 34140 ft | 424 kts | 201° |
| 2026-04-23 01:34 | -32.10142 | 151.09174 | 33887 ft | 423 kts | 201° |
| 2026-04-23 01:34 | -32.12898 | 151.07935 | 33632 ft | 424 kts | 201° |
| 2026-04-23 01:34 | -32.15651 | 151.06697 | 33376 ft | 424 kts | 201° |
| 2026-04-23 01:35 | -32.18409 | 151.05456 | 33134 ft | 424 kts | 201° |
| 2026-04-23 01:35 | -32.21171 | 151.04212 | 32890 ft | 425 kts | 200° |
| 2026-04-23 01:35 | -32.23929 | 151.02970 | 32642 ft | 424 kts | 200° |
| 2026-04-23 01:35 | -32.26669 | 151.01734 | 32393 ft | 416 kts | 200° |
| 2026-04-23 01:36 | -32.29348 | 151.00525 | 31971 ft | 409 kts | 200° |
| 2026-04-23 01:36 | -32.32000 | 150.99328 | 31371 ft | 407 kts | 200° |
| 2026-04-23 01:36 | -32.34609 | 150.98149 | 30791 ft | 406 kts | 200° |
| 2026-04-23 01:36 | -32.37277 | 150.96943 | 30188 ft | 404 kts | 200° |
| 2026-04-23 01:37 | -32.39859 | 150.95775 | 29591 ft | 401 kts | 200° |
| 2026-04-23 01:37 | -32.42457 | 150.94599 | 29044 ft | 397 kts | 200° |
| 2026-04-23 01:37 | -32.45022 | 150.93437 | 28514 ft | 394 kts | 200° |
| 2026-04-23 01:37 | -32.47574 | 150.92288 | 27975 ft | 390 kts | 198° |
| 2026-04-23 01:38 | -32.50216 | 150.91667 | 27356 ft | 388 kts | 180° |
| 2026-04-23 01:38 | -32.52884 | 150.91938 | 26898 ft | 383 kts | 173° |
| 2026-04-23 01:38 | -32.55520 | 150.92330 | 26403 ft | 380 kts | 173° |
| 2026-04-23 01:38 | -32.58131 | 150.92749 | 25927 ft | 378 kts | 172° |
| 2026-04-23 01:39 | -32.60732 | 150.93186 | 25421 ft | 376 kts | 172° |
| 2026-04-23 01:39 | -32.63317 | 150.93634 | 24934 ft | 375 kts | 172° |
| 2026-04-23 01:39 | -32.65888 | 150.94086 | 24448 ft | 373 kts | 172° |
| 2026-04-23 01:39 | -32.68452 | 150.94539 | 23964 ft | 372 kts | 172° |
| 2026-04-23 01:40 | -32.71008 | 150.94992 | 23412 ft | 371 kts | 171° |
| 2026-04-23 01:40 | -32.73549 | 150.95443 | 22916 ft | 368 kts | 171° |
| 2026-04-23 01:40 | -32.76069 | 150.95890 | 22462 ft | 364 kts | 171° |
| 2026-04-23 01:40 | -32.78558 | 150.96332 | 22006 ft | 360 kts | 171° |
| 2026-04-23 01:41 | -32.81032 | 150.96772 | 21516 ft | 358 kts | 171° |
| 2026-04-23 01:41 | -32.83488 | 150.97209 | 21109 ft | 354 kts | 171° |
| 2026-04-23 01:41 | -32.85911 | 150.97640 | 20710 ft | 351 kts | 171° |
| 2026-04-23 01:41 | -32.88316 | 150.98069 | 20296 ft | 348 kts | 170° |
| 2026-04-23 01:42 | -32.90701 | 150.98493 | 19888 ft | 345 kts | 170° |
| 2026-04-23 01:42 | -32.93066 | 150.98915 | 19484 ft | 343 kts | 170° |
| 2026-04-23 01:42 | -32.95417 | 150.99334 | 19082 ft | 340 kts | 170° |
| 2026-04-23 01:42 | -32.97749 | 150.99750 | 18695 ft | 338 kts | 170° |
| 2026-04-23 01:43 | -33.00061 | 151.00162 | 18251 ft | 335 kts | 170° |
| 2026-04-23 01:43 | -33.02355 | 151.00572 | 17848 ft | 332 kts | 170° |
| 2026-04-23 01:43 | -33.04626 | 151.00978 | 17463 ft | 328 kts | 170° |
| 2026-04-23 01:43 | -33.06873 | 151.01379 | 17085 ft | 325 kts | 170° |
| 2026-04-23 01:44 | -33.09102 | 151.01778 | 16716 ft | 322 kts | 170° |
| 2026-04-23 01:44 | -33.11312 | 151.02174 | 16342 ft | 320 kts | 170° |
| 2026-04-23 01:44 | -33.13498 | 151.02565 | 15976 ft | 317 kts | 170° |
| 2026-04-23 01:44 | -33.15690 | 151.02958 | 15601 ft | 320 kts | 170° |
| 2026-04-23 01:45 | -33.17875 | 151.03350 | 15228 ft | 324 kts | 170° |
| 2026-04-23 01:45 | -33.20119 | 151.03752 | 14851 ft | 327 kts | 170° |
| 2026-04-23 01:45 | -33.22361 | 151.04154 | 14487 ft | 326 kts | 170° |
| 2026-04-23 01:45 | -33.24634 | 151.04578 | 14069 ft | 326 kts | 169° |
| 2026-04-23 01:46 | -33.26834 | 151.05001 | 13629 ft | 325 kts | 169° |
| 2026-04-23 01:46 | -33.29066 | 151.05427 | 13251 ft | 322 kts | 169° |
| 2026-04-23 01:46 | -33.31268 | 151.05847 | 12886 ft | 319 kts | 169° |
| 2026-04-23 01:46 | -33.33452 | 151.06265 | 12512 ft | 316 kts | 169° |
| 2026-04-23 01:47 | -33.35613 | 151.06677 | 12149 ft | 313 kts | 169° |
| 2026-04-23 01:47 | -33.37756 | 151.07088 | 11755 ft | 311 kts | 169° |
| 2026-04-23 01:47 | -33.39885 | 151.07497 | 11362 ft | 309 kts | 169° |
| 2026-04-23 01:47 | -33.42001 | 151.07903 | 11085 ft | 305 kts | 169° |
| 2026-04-23 01:48 | -33.44064 | 151.08299 | 10878 ft | 297 kts | 169° |
| 2026-04-23 01:48 | -33.46100 | 151.08690 | 10528 ft | 296 kts | 169° |
| 2026-04-23 01:48 | -33.48118 | 151.09078 | 10256 ft | 291 kts | 169° |
| 2026-04-23 01:48 | -33.50065 | 151.09452 | 10082 ft | 277 kts | 169° |
| 2026-04-23 01:49 | -33.51955 | 151.09815 | 9810 ft | 273 kts | 169° |
| 2026-04-23 01:49 | -33.53805 | 151.10172 | 9666 ft | 265 kts | 169° |
| 2026-04-23 01:49 | -33.55600 | 151.10518 | 9533 ft | 257 kts | 169° |
| 2026-04-23 01:49 | -33.57336 | 151.10852 | 9393 ft | 249 kts | 169° |
| 2026-04-23 01:50 | -33.59024 | 151.11177 | 9263 ft | 241 kts | 169° |
| 2026-04-23 01:50 | -33.60652 | 151.11492 | 9110 ft | 234 kts | 169° |
| 2026-04-23 01:50 | -33.62271 | 151.11724 | 8579 ft | 245 kts | 172° |
| 2026-04-23 01:50 | -33.64012 | 151.11918 | 7806 ft | 257 kts | 173° |
| 2026-04-23 01:51 | -33.65823 | 151.12126 | 7076 ft | 266 kts | 172° |
| 2026-04-23 01:51 | -33.67691 | 151.12346 | 6279 ft | 273 kts | 172° |
| 2026-04-23 01:51 | -33.69560 | 151.12568 | 5469 ft | 264 kts | 172° |
| 2026-04-23 01:51 | -33.71348 | 151.12782 | 4736 ft | 254 kts | 172° |
| 2026-04-23 01:52 | -33.73020 | 151.13160 | 4326 ft | 233 kts | 166° |
| 2026-04-23 01:52 | -33.74535 | 151.13569 | 4033 ft | 215 kts | 166° |
| 2026-04-23 01:52 | -33.75961 | 151.13936 | 3790 ft | 205 kts | 167° |
| 2026-04-23 01:52 | -33.77354 | 151.14282 | 3541 ft | 201 kts | 167° |
| 2026-04-23 01:53 | -33.78682 | 151.14617 | 3327 ft | 190 kts | 166° |
| 2026-04-23 01:53 | -33.79952 | 151.14943 | 3081 ft | 184 kts | 166° |
| 2026-04-23 01:53 | -33.81194 | 151.15264 | 2856 ft | 183 kts | 166° |
| 2026-04-23 01:53 | -33.82450 | 151.15587 | 2606 ft | 186 kts | 167° |
| 2026-04-23 01:54 | -33.83710 | 151.15913 | 2359 ft | 185 kts | 166° |
| 2026-04-23 01:54 | -33.84972 | 151.16240 | 2109 ft | 185 kts | 166° |
| 2026-04-23 01:54 | -33.86229 | 151.16568 | 1845 ft | 184 kts | 167° |
| 2026-04-23 01:54 | -33.87426 | 151.16875 | 1625 ft | 167 kts | 166° |
| 2026-04-23 01:55 | -33.88504 | 151.17153 | 1397 ft | 149 kts | 165° |
| 2026-04-23 01:55 | -33.89470 | 151.17406 | 1206 ft | 137 kts | 164° |
| 2026-04-23 01:55 | -33.90391 | 151.17647 | 1024 ft | 135 kts | 166° |
| 2026-04-23 01:55 | -33.91325 | 151.17888 | 821 ft | 138 kts | 166° |
| 2026-04-23 01:56 | -33.92258 | 151.18139 | 624 ft | 137 kts | 167° |
| 2026-04-23 01:56 | -33.93176 | 151.18370 | 418 ft | 133 kts | 167° |
| 2026-04-23 01:56 | -33.94088 | 151.18610 | 250 ft | 134 kts | 166° |
| 2026-04-23 01:56 | -33.94994 | 151.18841 | 88 ft | 135 kts | 165° |
| 2026-04-23 01:57 | -33.95858 | 151.19065 | 31 ft | 105 kts | 167° |
| 2026-04-23 01:57 | -33.96360 | 151.19194 | 27 ft | 53 kts | 168° |
| 2026-04-23 01:57 | -33.96611 | 151.19213 | 23 ft | 31 kts | 192° |
| 2026-04-23 01:57 | -33.96719 | 151.19139 | 20 ft | 13 kts | 259° |
| 2026-04-23 01:58 | -33.96712 | 151.19103 | 20 ft | 0 kts | 304° |
| 2026-04-23 01:59 | -33.96701 | 151.19091 | 20 ft | 8 kts | 322° |
| 2026-04-23 01:59 | -33.96615 | 151.19059 | 20 ft | 16 kts | 347° |
| 2026-04-23 01:59 | -33.96496 | 151.19029 | 21 ft | 19 kts | 349° |
| 2026-04-23 01:59 | -33.96367 | 151.18996 | 28 ft | 19 kts | 347° |
| 2026-04-23 02:00 | -33.96235 | 151.18960 | 27 ft | 21 kts | 347° |
| 2026-04-23 02:00 | -33.96083 | 151.18921 | 27 ft | 24 kts | 348° |
| 2026-04-23 02:00 | -33.95916 | 151.18878 | 28 ft | 26 kts | 347° |
| 2026-04-23 02:00 | -33.95730 | 151.18829 | 27 ft | 29 kts | 347° |
| 2026-04-23 02:01 | -33.95523 | 151.18776 | 27 ft | 32 kts | 347° |
| 2026-04-23 02:01 | -33.95304 | 151.18715 | 27 ft | 31 kts | 341° |
| 2026-04-23 02:01 | -33.95153 | 151.18584 | 28 ft | 18 kts | 318° |
| 2026-04-23 02:01 | -33.95114 | 151.18463 | 27 ft | 17 kts | 263° |
| 2026-04-23 02:02 | -33.95142 | 151.18307 | 26 ft | 22 kts | 258° |
| 2026-04-23 02:02 | -33.95181 | 151.18093 | 28 ft | 27 kts | 257° |
| 2026-04-23 02:02 | -33.95147 | 151.17958 | 28 ft | 18 kts | 348° |
| 2026-04-23 02:02 | -33.95008 | 151.17920 | 26 ft | 26 kts | 348° |
| 2026-04-23 02:03 | -33.94788 | 151.17863 | 26 ft | 37 kts | 348° |
| 2026-04-23 02:03 | -33.94577 | 151.17809 | 27 ft | 25 kts | 348° |
| 2026-04-23 02:03 | -33.94390 | 151.17754 | 30 ft | 33 kts | 346° |
| 2026-04-23 02:03 | -33.94134 | 151.17675 | 24 ft | 41 kts | 345° |
| 2026-04-23 02:04 | -33.93945 | 151.17623 | 26 ft | 27 kts | 349° |
| 2026-04-23 02:04 | -33.93859 | 151.17694 | 21 ft | 17 kts | 70° |
| 2026-04-23 02:04 | -33.93776 | 151.17786 | 26 ft | 17 kts | 6° |
| 2026-04-23 02:04 | -33.93678 | 151.17807 | 33 ft | 14 kts | 10° |
| 2026-04-23 02:05 | -33.93593 | 151.17825 | 33 ft | 7 kts | 10° |
| 2026-04-23 02:05 | -33.93569 | 151.17850 | 33 ft | 4 kts | 83° |
| 2026-04-23 02:05 | -33.93573 | 151.17877 | 33 ft | 3 kts | 102° |
| 2026-04-23 02:05 | -33.93576 | 151.17894 | 33 ft | 2 kts | 101° |
| 2026-04-23 02:06 | -33.93577 | 151.17901 | 33 ft | 0 kts | 101° |